Time;durP1;ratioP1;P1;durP2;ratioP2;P2;SDS_P1;SDS_P2;PMS_P1;PMS_P2;Temp;Humidity;BMP_temperature;BMP_pressure;BME280_temperature;BME280_humidity;BME280_pressure;Samples;Min_cycle;Max_cycle;Signal;HPM_P1;HPM_P2
2023/08/01 00:03:52;;;;;;;3.22;3.03;;;;;;;15.07;97.60;98798.00;10117091;29;20052;-75
2023/08/01 00:08:55;;;;;;;3.03;2.72;;;;;;;14.98;96.36;98791.06;10116188;29;20085;-76
2023/08/01 00:13:58;;;;;;;3.28;3.00;;;;;;;14.92;96.20;98783.69;10116737;29;20051;-76
2023/08/01 00:19:02;;;;;;;4.95;2.65;;;;;;;14.79;96.86;98779.84;10110218;29;20060;-76
2023/08/01 00:24:07;;;;;;;4.93;2.55;;;;;;;14.62;97.36;98778.38;10116296;29;20048;-76
2023/08/01 00:29:10;;;;;;;4.15;2.15;;;;;;;14.69;96.77;98783.88;10105013;29;20060;-76
2023/08/01 00:34:14;;;;;;;2.00;1.80;;;;;;;14.38;97.08;98772.28;10109801;29;20052;-75
2023/08/01 00:39:17;;;;;;;4.68;1.77;;;;;;;14.57;96.14;98748.41;10109335;29;20512;-76
2023/08/01 00:44:20;;;;;;;2.22;1.75;;;;;;;14.35;97.26;98751.00;10112302;29;20059;-77
2023/08/01 00:49:25;;;;;;;3.22;2.33;;;;;;;14.49;96.75;98748.50;10114334;29;20508;-76
2023/08/01 00:54:30;;;;;;;2.83;1.90;;;;;;;14.45;96.72;98736.38;10115679;29;20059;-77
2023/08/01 00:59:34;;;;;;;6.03;2.17;;;;;;;14.55;95.80;98723.44;10113121;29;21175;-77
2023/08/01 01:04:39;;;;;;;4.13;2.28;;;;;;;14.46;95.85;98716.47;10110397;29;20135;-77
2023/08/01 01:09:42;;;;;;;2.47;2.22;;;;;;;14.23;97.22;98720.09;10112504;29;20071;-77
2023/08/01 01:14:45;;;;;;;3.60;2.63;;;;;;;14.57;95.56;98714.09;10110140;29;20720;-77
2023/08/01 01:19:49;;;;;;;6.53;3.30;;;;;;;14.58;95.57;98704.97;10115016;29;20057;-76
2023/08/01 01:24:56;;;;;;;4.00;2.63;;;;;;;14.66;95.12;98700.47;10116226;29;20056;-77
2023/08/01 01:30:00;;;;;;;2.25;1.98;;;;;;;14.67;94.39;98692.16;10118249;29;20096;-77
2023/08/01 01:35:05;;;;;;;2.65;1.90;;;;;;;14.52;95.45;98686.81;10099726;29;20044;-77
2023/08/01 01:40:10;;;;;;;1.95;1.73;;;;;;;14.54;94.72;98675.84;10124300;29;20100;-77
2023/08/01 01:45:12;;;;;;;2.67;1.52;;;;;;;14.45;95.19;98671.56;10099374;29;20072;-77
2023/08/01 01:50:15;;;;;;;2.00;1.33;;;;;;;14.34;95.50;98668.31;10108619;29;20047;-77
2023/08/01 01:55:20;;;;;;;1.73;1.63;;;;;;;14.41;95.56;98673.00;10115728;29;20048;-76
2023/08/01 02:00:23;;;;;;;2.75;2.10;;;;;;;14.41;95.14;98671.13;10112183;29;20131;-77
2023/08/01 02:05:26;;;;;;;2.40;2.20;;;;;;;14.48;94.86;98649.56;10111658;29;20139;-77
2023/08/01 02:10:30;;;;;;;5.25;2.00;;;;;;;14.56;94.60;98634.09;10112560;29;20048;-77
2023/08/01 02:15:32;;;;;;;3.97;2.08;;;;;;;14.58;94.16;98614.97;10111142;29;20056;-77
2023/08/01 02:20:35;;;;;;;3.50;2.42;;;;;;;14.50;94.32;98605.13;10108081;29;20052;-77
2023/08/01 02:25:40;;;;;;;3.75;2.00;;;;;;;14.49;94.06;98619.66;10110498;29;20052;-77
2023/08/01 02:30:43;;;;;;;9.48;2.10;;;;;;;14.40;95.08;98626.25;10101985;29;20053;-77
2023/08/01 02:35:47;;;;;;;2.85;2.08;;;;;;;14.44;94.95;98611.31;10103840;29;20079;-77
2023/08/01 02:40:51;;;;;;;2.92;1.92;;;;;;;14.41;94.97;98603.59;10110891;29;20127;-78
2023/08/01 02:45:54;;;;;;;4.28;2.22;;;;;;;14.47;94.93;98577.66;10119872;29;20047;-77
2023/08/01 02:57:45;;;;;;;2.85;2.58;;;;;;;14.33;95.05;98582.91;10118151;29;20157;-76
2023/08/01 03:02:48;;;;;;;3.60;2.28;;;;;;;14.38;95.17;98574.25;10120994;29;20144;-76
2023/08/01 03:07:50;;;;;;;3.20;1.98;;;;;;;14.27;94.54;98580.97;10114081;29;20117;-76
2023/08/01 03:12:55;;;;;;;3.88;1.90;;;;;;;14.26;94.59;98578.47;10121655;29;20180;-76
2023/08/01 03:17:57;;;;;;;3.40;1.70;;;;;;;14.10;94.90;98599.28;10111608;29;20150;-76
2023/08/01 03:23:00;;;;;;;2.92;1.85;;;;;;;14.22;94.76;98590.69;10115585;29;20143;-76
2023/08/01 03:28:05;;;;;;;3.05;2.30;;;;;;;14.33;94.61;98588.31;10109417;29;20056;-76
2023/08/01 03:33:08;;;;;;;3.85;1.90;;;;;;;14.41;94.49;98584.69;10100020;29;20139;-76
2023/08/01 03:38:11;;;;;;;4.28;2.10;;;;;;;14.35;94.41;98586.25;10112432;29;20404;-76
2023/08/01 03:43:15;;;;;;;3.33;2.25;;;;;;;14.41;94.71;98594.66;10116207;29;20606;-76
2023/08/01 03:48:18;;;;;;;3.42;3.00;;;;;;;14.38;95.09;98591.31;10113947;29;20059;-75
2023/08/01 03:53:20;;;;;;;3.53;3.22;;;;;;;14.43;94.74;98579.09;10114864;29;20141;-75
2023/08/01 03:58:25;;;;;;;5.88;3.70;;;;;;;14.41;95.37;98576.59;10116526;29;20054;-76
2023/08/01 04:03:27;;;;;;;4.20;3.53;;;;;;;14.21;96.58;98586.31;10114083;29;20766;-76
2023/08/01 04:08:30;;;;;;;4.72;4.03;;;;;;;14.44;95.47;98586.16;10113251;29;20057;-76
2023/08/01 04:13:35;;;;;;;7.00;4.40;;;;;;;14.47;95.42;98577.66;10115018;29;20055;-76
2023/08/01 04:18:37;;;;;;;9.43;5.32;;;;;;;14.38;95.75;98577.81;10108380;29;20057;-76
2023/08/01 04:23:40;;;;;;;8.98;7.18;;;;;;;14.38;95.51;98585.91;10108537;29;20587;-76
2023/08/01 04:28:47;;;;;;;11.40;8.02;;;;;;;14.56;95.09;98569.25;10100909;29;20059;-77
2023/08/01 04:33:50;;;;;;;10.32;7.93;;;;;;;14.57;94.90;98573.63;10104039;29;20058;-76
2023/08/01 04:38:52;;;;;;;13.18;8.55;;;;;;;14.62;94.91;98567.63;10113958;29;20052;-76
2023/08/01 04:43:57;;;;;;;13.65;9.02;;;;;;;14.52;95.75;98577.94;10112671;29;21031;-76
2023/08/01 04:48:59;;;;;;;13.32;7.45;;;;;;;14.32;97.15;98583.94;10114519;29;20080;-77
2023/08/01 04:54:02;;;;;;;9.90;7.30;;;;;;;14.28;97.86;98590.75;10113503;29;20052;-76
2023/08/01 04:59:07;;;;;;;12.80;8.88;;;;;;;14.21;99.29;98602.53;10113773;29;20126;-76
2023/08/01 05:04:10;;;;;;;14.45;8.27;;;;;;;14.26;98.81;98594.66;10112999;29;20115;-76
2023/08/01 05:09:13;;;;;;;12.75;7.75;;;;;;;14.30;98.77;98591.41;10114354;29;20063;-76
2023/08/01 05:14:17;;;;;;;12.38;7.25;;;;;;;13.77;100.00;98592.63;10108479;29;20142;-76
2023/08/01 05:19:20;;;;;;;16.95;8.70;;;;;;;14.40;97.16;98603.78;10107984;29;21190;-76
2023/08/01 05:24:23;;;;;;;16.25;9.55;;;;;;;14.33;97.38;98591.00;10106530;29;20098;-76
2023/08/01 05:29:27;;;;;;;15.82;10.27;;;;;;;14.37;97.48;98610.34;10106167;29;20512;-76
2023/08/01 05:34:30;;;;;;;18.15;9.85;;;;;;;14.37;97.17;98600.41;10105167;29;20667;-75
2023/08/01 05:39:32;;;;;;;19.35;10.07;;;;;;;14.39;97.30;98613.75;10105407;29;20052;-76
2023/08/01 05:44:37;;;;;;;18.00;9.70;;;;;;;14.54;96.63;98611.84;10108655;29;20052;-76
2023/08/01 05:49:41;;;;;;;18.65;9.90;;;;;;;14.48;96.54;98620.72;10114285;29;20052;-76
2023/08/01 05:54:44;;;;;;;20.65;9.20;;;;;;;14.30;97.39;98637.31;10111769;29;20056;-76
2023/08/01 05:59:48;;;;;;;13.25;8.57;;;;;;;14.08;98.13;98633.72;10110792;29;20052;-75
2023/08/01 06:04:51;;;;;;;20.65;8.75;;;;;;;14.42;95.70;98634.13;10110649;29;20512;-76
2023/08/01 06:09:54;;;;;;;19.08;8.90;;;;;;;14.16;97.00;98639.03;10109890;29;20075;-76
2023/08/01 06:14:58;;;;;;;14.77;8.80;;;;;;;14.10;97.23;98642.50;10111190;29;20053;-76
2023/08/01 06:20:03;;;;;;;13.70;8.07;;;;;;;14.11;97.55;98643.31;10108513;29;21661;-75
2023/08/01 06:25:07;;;;;;;14.82;7.78;;;;;;;14.00;97.36;98651.91;10100646;29;20053;-76
2023/08/01 06:30:12;;;;;;;20.35;8.52;;;;;;;13.97;97.48;98661.22;10106966;29;20048;-75
2023/08/01 06:35:15;;;;;;;19.60;9.63;;;;;;;14.23;96.56;98655.28;10113069;29;20056;-75
2023/08/01 06:40:18;;;;;;;15.93;9.25;;;;;;;14.80;95.02;98656.34;10115115;29;20163;-75
2023/08/01 06:45:23;;;;;;;18.17;10.77;;;;;;;14.82;93.64;98654.28;10119228;29;20048;-75
2023/08/01 06:50:25;;;;;;;15.82;10.70;;;;;;;14.79;93.68;98666.31;10130709;29;20075;-76
2023/08/01 06:55:28;;;;;;;23.05;9.82;;;;;;;14.90;92.07;98662.25;10129457;29;20516;-76
2023/08/01 07:00:32;;;;;;;18.13;10.98;;;;;;;15.18;93.68;98673.09;10129305;29;20092;-76
2023/08/01 07:05:35;;;;;;;22.48;11.68;;;;;;;15.34;91.51;98673.84;10128905;29;20048;-76
2023/08/01 07:10:38;;;;;;;22.23;10.77;;;;;;;15.42;90.72;98685.38;10125625;29;20048;-76
2023/08/01 07:15:43;;;;;;;19.50;10.82;;;;;;;15.19;90.43;98685.59;10121135;29;21267;-76
2023/08/01 07:20:46;;;;;;;18.38;9.38;;;;;;;14.48;94.94;98696.34;10119115;29;20523;-75
2023/08/01 07:25:49;;;;;;;21.00;11.52;;;;;;;13.87;100.00;98693.88;10112070;29;20212;-76
2023/08/01 07:31:00;;;;;;;25.60;12.10;;;;;;;14.27;99.26;98707.91;10118385;29;20158;-77
2023/08/01 07:36:04;;;;;;;21.42;12.75;;;;;;;14.26;99.81;98700.84;10120316;29;20060;-76
2023/08/01 07:41:08;;;;;;;14.85;8.68;;;;;;;14.37;99.19;98700.34;10112735;29;20064;-76
2023/08/01 07:46:12;;;;;;;13.15;8.10;;;;;;;14.70;96.33;98699.91;10113916;29;20063;-76
2023/08/01 07:51:15;;;;;;;11.88;8.45;;;;;;;14.42;96.06;98701.66;10121652;29;20531;-75
2023/08/01 07:56:18;;;;;;;11.40;9.38;;;;;;;14.96;95.38;98712.00;10123180;29;20504;-75
2023/08/01 08:01:22;;;;;;;15.25;7.65;;;;;;;15.66;93.13;98715.72;10119043;29;20144;-75
2023/08/01 08:06:25;;;;;;;9.38;7.30;;;;;;;15.58;90.16;98710.50;10114381;29;20075;-76
2023/08/01 08:11:28;;;;;;;11.15;7.32;;;;;;;15.68;89.77;98714.50;10117836;29;20456;-75
2023/08/01 08:16:32;;;;;;;11.98;4.93;;;;;;;16.17;88.39;98711.88;10109016;29;20537;-76
2023/08/01 08:21:36;;;;;;;15.25;6.55;;;;;;;16.64;84.98;98710.19;10112020;29;20056;-74
2023/08/01 08:26:39;;;;;;;9.48;6.15;;;;;;;15.20;88.40;98700.78;10117094;29;20097;-77
2023/08/01 08:31:44;;;;;;;9.18;6.00;;;;;;;14.13;94.53;98714.16;10104020;29;20047;-76
2023/08/01 08:36:49;;;;;;;11.25;7.20;;;;;;;14.10;100.00;98701.03;10108260;29;20103;-76
2023/08/01 08:41:53;;;;;;;13.55;6.63;;;;;;;14.26;99.31;98695.44;10113944;29;20079;-76
2023/08/01 08:47:03;;;;;;;14.10;7.53;;;;;;;14.23;100.00;98706.59;10114391;29;20051;-77
2023/08/01 08:52:08;;;;;;;10.32;6.20;;;;;;;14.69;100.00;98711.72;10116889;29;20420;-76
2023/08/01 08:57:11;;;;;;;7.18;4.60;;;;;;;15.40;96.52;98719.09;10117914;29;21315;-76
2023/08/01 09:02:16;;;;;;;9.40;4.70;;;;;;;15.21;96.82;98715.16;10113614;29;20584;-75
2023/08/01 09:07:24;;;;;;;10.23;4.10;;;;;;;15.35;94.98;98708.00;10113271;29;20714;-76
2023/08/01 09:12:27;;;;;;;6.57;4.35;;;;;;;15.62;91.47;98718.00;10112305;29;21631;-76
2023/08/01 09:17:31;;;;;;;4.47;3.95;;;;;;;15.54;90.35;98726.25;10108580;29;20079;-76
2023/08/01 09:22:43;;;;;;;7.00;3.90;;;;;;;15.50;90.51;98725.00;10110643;29;20098;-75
2023/08/01 09:27:46;;;;;;;4.97;3.77;;;;;;;16.46;89.20;98711.59;10112091;29;20597;-76
2023/08/01 09:32:53;;;;;;;5.25;3.50;;;;;;;16.52;85.14;98708.06;10113811;29;20152;-76
2023/08/01 09:38:01;;;;;;;4.35;2.65;;;;;;;17.04;82.23;98713.81;10116509;29;20048;-78
2023/08/01 09:43:04;;;;;;;4.30;2.67;;;;;;;17.90;79.10;98716.50;10116832;29;20098;-76
2023/08/01 09:48:08;;;;;;;4.45;3.28;;;;;;;17.72;75.69;98719.06;10114128;29;20053;-76
2023/08/01 09:53:11;;;;;;;7.97;4.32;;;;;;;17.31;78.91;98722.03;10117470;29;20612;-75
2023/08/01 09:58:16;;;;;;;9.77;5.55;;;;;;;15.91;83.34;98743.19;10114076;29;20136;-76
2023/08/01 10:03:20;;;;;;;11.18;6.07;;;;;;;14.31;96.04;98733.50;10111410;29;20646;-75
2023/08/01 10:08:27;;;;;;;11.55;7.70;;;;;;;14.78;98.71;98736.75;10114953;29;20044;-79
2023/08/01 10:13:31;;;;;;;12.65;8.40;;;;;;;15.63;93.05;98727.81;10117130;29;20624;-76
2023/08/01 10:18:37;;;;;;;12.80;7.30;;;;;;;14.95;92.60;98723.88;10115814;29;20518;-76
2023/08/01 10:23:40;;;;;;;18.05;10.75;;;;;;;15.05;94.93;98725.19;10115378;29;20060;-76
2023/08/01 10:28:51;;;;;;;17.65;11.95;;;;;;;14.63;100.00;98703.56;10119634;29;20174;-76
2023/08/01 10:34:06;;;;;;;19.83;14.25;;;;;;;15.18;96.72;98712.84;10122195;29;20099;-76
2023/08/01 10:39:09;;;;;;;29.90;13.05;;;;;;;14.60;100.00;98737.22;10124731;29;20052;-76
2023/08/01 10:44:14;;;;;;;17.27;12.35;;;;;;;14.42;100.00;98737.59;10121568;29;20131;-76
2023/08/01 10:49:19;;;;;;;16.52;9.05;;;;;;;13.86;100.00;98724.59;10118176;29;20052;-76
2023/08/01 10:54:24;;;;;;;18.05;10.35;;;;;;;14.56;100.00;98716.97;10115535;29;20772;-76
2023/08/01 10:59:27;;;;;;;16.02;10.50;;;;;;;15.13;100.00;98721.53;10120235;29;20062;-76
2023/08/01 11:04:31;;;;;;;16.05;12.40;;;;;;;16.25;100.00;98725.25;10124005;29;21278;-76
2023/08/01 11:09:34;;;;;;;15.80;9.98;;;;;;;17.06;94.14;98728.03;10121018;29;20048;-76
2023/08/01 11:14:38;;;;;;;13.40;9.43;;;;;;;17.58;95.84;98723.69;10113003;29;20139;-76
2023/08/01 11:19:42;;;;;;;15.65;9.02;;;;;;;17.22;94.75;98721.38;10107212;29;20052;-75
2023/08/01 11:24:51;;;;;;;11.95;6.25;;;;;;;17.01;89.68;98731.34;10117395;29;20052;-76
2023/08/01 11:29:54;;;;;;;17.17;7.53;;;;;;;16.09;93.02;98750.78;10115076;29;20048;-75
2023/08/01 11:34:58;;;;;;;7.10;5.32;;;;;;;15.14;98.51;98749.41;10115273;29;20106;-76
2023/08/01 11:40:02;;;;;;;9.32;5.00;;;;;;;14.47;98.82;98748.69;10121811;29;20055;-75
2023/08/01 11:45:09;;;;;;;5.03;2.72;;;;;;;14.70;97.81;98766.59;10126174;29;20509;-76
2023/08/01 11:50:14;;;;;;;6.75;4.20;;;;;;;15.25;95.15;98776.78;10124887;29;20072;-76
2023/08/01 11:55:22;;;;;;;7.55;5.00;;;;;;;15.30;95.25;98788.88;10124260;29;20082;-75
2023/08/01 12:00:27;;;;;;;5.72;3.72;;;;;;;16.78;92.26;98768.81;10123846;29;20047;-75
2023/08/01 12:05:31;;;;;;;4.90;3.28;;;;;;;17.54;83.97;98773.16;10120771;29;20052;-75
2023/08/01 12:10:38;;;;;;;7.53;4.22;;;;;;;18.17;84.47;98786.28;10111080;29;20049;-76
2023/08/01 12:15:41;;;;;;;5.20;3.40;;;;;;;17.02;83.50;98792.66;10110619;29;20126;-75
2023/08/01 12:20:45;;;;;;;5.43;3.40;;;;;;;16.87;80.22;98788.47;10103942;29;20052;-75
2023/08/01 12:25:49;;;;;;;6.93;4.05;;;;;;;18.31;83.92;98796.06;10107807;29;20055;-75
2023/08/01 12:30:52;;;;;;;4.30;2.50;;;;;;;17.47;77.11;98803.03;10118437;29;20063;-76
2023/08/01 12:35:56;;;;;;;5.07;3.53;;;;;;;17.52;75.55;98818.69;10123461;29;20051;-75
2023/08/01 12:40:59;;;;;;;8.82;3.55;;;;;;;18.27;78.02;98789.41;10126227;29;20048;-76
2023/08/01 12:46:02;;;;;;;4.07;2.50;;;;;;;17.61;73.88;98785.69;10125361;29;20056;-76
2023/08/01 12:51:06;;;;;;;4.95;2.15;;;;;;;17.36;73.83;98788.19;10118507;29;20048;-76
2023/08/01 12:56:09;;;;;;;5.32;2.60;;;;;;;17.55;75.99;98797.41;10120948;29;20550;-76
2023/08/01 13:01:12;;;;;;;7.40;2.63;;;;;;;16.65;77.97;98810.28;10118007;29;20048;-77
2023/08/01 13:06:17;;;;;;;6.45;3.40;;;;;;;14.61;100.00;98852.34;10111054;29;20056;-76
2023/08/01 13:11:20;;;;;;;5.57;2.47;;;;;;;12.96;100.00;98852.06;10105099;29;20138;-76
2023/08/01 13:16:23;;;;;;;3.17;1.40;;;;;;;12.98;100.00;98860.81;10109519;29;20052;-76
2023/08/01 13:21:27;;;;;;;4.53;2.00;;;;;;;13.08;100.00;98855.19;10112725;29;20055;-77
2023/08/01 13:26:30;;;;;;;2.83;2.53;;;;;;;13.95;100.00;98844.09;10116469;29;20416;-76
2023/08/01 13:31:34;;;;;;;6.97;4.30;;;;;;;15.54;100.00;98860.72;10117604;29;20074;-76
2023/08/01 13:36:38;;;;;;;9.40;3.03;;;;;;;16.76;98.73;98853.09;10105355;29;20055;-76
2023/08/01 13:41:41;;;;;;;8.13;2.22;;;;;;;17.61;89.79;98852.75;10114734;29;20052;-76
2023/08/01 13:46:45;;;;;;;3.38;1.77;;;;;;;17.62;86.96;98844.38;10115317;29;20819;-76
2023/08/01 13:51:50;;;;;;;2.78;1.85;;;;;;;18.62;83.45;98847.00;10115260;29;20055;-76
2023/08/01 13:56:54;;;;;;;4.32;1.42;;;;;;;19.23;82.06;98851.19;10117769;29;20524;-76
2023/08/01 14:01:57;;;;;;;3.22;1.98;;;;;;;18.22;77.06;98843.56;10106224;29;20055;-76
2023/08/01 14:07:02;;;;;;;6.90;2.28;;;;;;;17.72;77.40;98846.69;10105346;29;20320;-77
2023/08/01 14:12:07;;;;;;;5.82;2.35;;;;;;;17.31;78.78;98849.56;10113402;29;20052;-76
2023/08/01 14:17:09;;;;;;;5.05;2.08;;;;;;;17.54;79.12;98844.56;10105908;29;20159;-76
2023/08/01 14:22:14;;;;;;;4.35;1.67;;;;;;;18.54;72.46;98853.53;10110927;29;20520;-76
2023/08/01 14:27:16;;;;;;;7.00;1.85;;;;;;;18.61;69.52;98849.94;10103267;29;20048;-76
2023/08/01 14:32:20;;;;;;;3.97;1.67;;;;;;;19.25;68.68;98859.94;10112980;29;20052;-76
2023/08/01 14:37:25;;;;;;;2.80;1.63;;;;;;;18.05;72.16;98867.63;10110754;29;20051;-77
2023/08/01 14:42:29;;;;;;;3.63;1.88;;;;;;;17.90;71.40;98857.75;10109556;29;21293;-77
2023/08/01 14:47:34;;;;;;;4.63;1.75;;;;;;;19.52;68.83;98863.34;10110675;29;21588;-77
2023/08/01 14:52:38;;;;;;;7.10;2.15;;;;;;;19.14;68.20;98872.38;10120715;29;20203;-77
2023/08/01 14:57:41;;;;;;;5.43;2.53;;;;;;;17.66;71.17;98882.78;10116682;29;20059;-77
2023/08/01 15:02:44;;;;;;;2.70;1.85;;;;;;;17.86;72.96;98882.84;10115096;29;20051;-76
2023/08/01 15:07:48;;;;;;;3.97;2.30;;;;;;;17.67;73.22;98885.31;10110285;29;20056;-77
2023/08/01 15:12:52;;;;;;;8.63;2.70;;;;;;;17.74;75.38;98909.75;10105550;29;20127;-76
2023/08/01 15:17:54;;;;;;;5.88;2.80;;;;;;;14.70;100.00;98908.00;10107175;29;20485;-76
2023/08/01 15:22:59;;;;;;;4.30;2.30;;;;;;;14.93;100.00;98905.16;10110769;29;20851;-77
2023/08/01 15:28:02;;;;;;;8.55;2.75;;;;;;;14.88;100.00;98909.47;10114029;29;20056;-77
2023/08/01 15:33:07;;;;;;;5.38;2.42;;;;;;;14.78;100.00;98918.72;10117939;29;20057;-76
2023/08/01 15:38:12;;;;;;;5.38;3.00;;;;;;;16.62;100.00;98902.00;10118733;29;20473;-76
2023/08/01 15:43:14;;;;;;;4.53;2.80;;;;;;;17.11;100.00;98907.25;10121669;29;20060;-76
2023/08/01 15:48:17;;;;;;;8.38;2.65;;;;;;;17.09;100.00;98900.38;10126145;29;20413;-76
2023/08/01 15:53:22;;;;;;;6.18;2.92;;;;;;;16.26;98.29;98893.00;10127419;29;20059;-77
2023/08/01 15:58:26;;;;;;;7.03;3.17;;;;;;;16.06;99.24;98916.38;10120789;29;20548;-77
2023/08/01 16:03:29;;;;;;;5.18;2.95;;;;;;;15.22;98.07;98931.34;10111952;29;20110;-77
2023/08/01 16:08:34;;;;;;;5.88;3.17;;;;;;;14.68;98.13;98920.84;10111037;29;20049;-77
2023/08/01 16:13:36;;;;;;;5.30;2.92;;;;;;;14.68;99.14;98923.56;10116654;29;20048;-77
2023/08/01 16:18:39;;;;;;;7.47;3.28;;;;;;;15.24;99.85;98926.56;10113798;29;20085;-77
2023/08/01 16:23:43;;;;;;;12.82;4.05;;;;;;;15.54;100.00;98917.56;10119320;29;20056;-77
2023/08/01 16:28:46;;;;;;;7.00;4.30;;;;;;;15.94;98.97;98921.50;10124598;29;20070;-77
2023/08/01 16:33:49;;;;;;;8.27;4.15;;;;;;;16.34;97.51;98911.81;10125545;29;20067;-77
2023/08/01 16:38:54;;;;;;;5.53;3.90;;;;;;;16.95;96.14;98918.44;10122698;29;20149;-76
2023/08/01 16:43:57;;;;;;;6.25;3.95;;;;;;;17.53;100.00;98920.81;10126050;29;20051;-77
2023/08/01 16:49:00;;;;;;;7.35;3.70;;;;;;;18.72;98.81;98915.38;10120129;29;20060;-76
2023/08/01 16:54:24;;;;;;;11.27;4.20;;;;;;;18.40;92.57;98919.81;10111374;29;20110;-77
2023/08/01 16:59:27;;;;;;;4.03;2.92;;;;;;;18.90;92.50;98922.91;10108287;29;20063;-77
2023/08/01 17:04:30;;;;;;;7.15;3.55;;;;;;;17.27;88.21;98935.09;10115116;29;20508;-76
2023/08/01 17:09:35;;;;;;;5.45;3.00;;;;;;;16.39;88.73;98941.06;10113651;29;21228;-76
2023/08/01 17:14:38;;;;;;;6.40;2.88;;;;;;;16.05;89.13;98941.78;10110943;29;20063;-76
2023/08/01 17:19:41;;;;;;;6.65;2.88;;;;;;;15.50;89.54;98967.69;10119305;29;20400;-76
2023/08/01 17:24:45;;;;;;;6.18;2.60;;;;;;;15.51;86.50;98975.59;10122303;29;20056;-75
2023/08/01 17:29:48;;;;;;;5.57;1.90;;;;;;;15.45;84.52;98960.97;10115134;29;20177;-76
2023/08/01 17:34:51;;;;;;;6.05;2.10;;;;;;;15.55;83.25;98951.69;10121501;29;20159;-75
2023/08/01 17:39:56;;;;;;;6.60;2.53;;;;;;;15.61;81.71;98970.72;10122921;29;20048;-76
2023/08/01 17:44:58;;;;;;;5.38;2.17;;;;;;;15.44;79.83;98972.84;10114940;29;20055;-76
2023/08/01 17:50:02;;;;;;;4.40;1.92;;;;;;;15.91;81.35;98979.56;10111032;29;20060;-76
2023/08/01 17:55:07;;;;;;;3.65;2.03;;;;;;;15.73;81.39;98981.03;10116878;29;20057;-76
2023/08/01 18:00:12;;;;;;;5.93;2.40;;;;;;;15.72;81.86;98990.22;10116288;29;20054;-76
2023/08/01 18:05:15;;;;;;;3.90;2.10;;;;;;;15.80;81.70;98993.63;10113636;29;20698;-76
2023/08/01 18:10:20;;;;;;;5.25;1.80;;;;;;;15.65;78.59;99001.78;10106505;29;21826;-76
2023/08/01 18:15:23;;;;;;;5.05;2.00;;;;;;;15.55;78.06;99012.09;10102389;29;20432;-76
2023/08/01 18:20:26;;;;;;;3.25;2.00;;;;;;;15.58;78.19;99021.69;10114910;29;20063;-77
2023/08/01 18:25:34;;;;;;;4.97;2.10;;;;;;;15.46;77.87;99021.31;10117788;29;20072;-76
2023/08/01 18:30:37;;;;;;;3.58;2.25;;;;;;;15.53;79.44;99021.44;10120711;29;20060;-77
2023/08/01 18:35:44;;;;;;;3.58;1.92;;;;;;;15.40;78.61;99031.03;10125006;29;20560;-77
2023/08/01 18:40:49;;;;;;;6.18;1.95;;;;;;;15.31;77.82;99040.25;10125084;29;20063;-77
2023/08/01 18:45:54;;;;;;;4.65;1.75;;;;;;;14.76;76.75;99028.03;10127776;29;20052;-77
2023/08/01 18:50:58;;;;;;;5.90;1.55;;;;;;;15.09;75.15;99031.22;10129974;29;20053;-77
2023/08/01 18:56:09;;;;;;;3.95;1.80;;;;;;;14.99;76.09;99041.47;10128577;29;20118;-76
2023/08/01 19:01:17;;;;;;;10.13;2.28;;;;;;;15.35;75.70;99041.59;10122042;29;20071;-77
2023/08/01 19:06:24;;;;;;;11.10;2.45;;;;;;;15.24;75.64;99048.28;10115854;29;20439;-76
2023/08/01 19:11:30;;;;;;;8.25;2.17;;;;;;;15.03;77.01;99051.72;10119638;29;20052;-76
2023/08/01 19:16:33;;;;;;;7.50;1.88;;;;;;;14.86;77.07;99065.59;10120310;29;20483;-77
2023/08/01 19:21:36;;;;;;;6.18;2.30;;;;;;;14.91;77.31;99079.41;10122790;29;20049;-76
2023/08/01 19:26:40;;;;;;;5.07;2.40;;;;;;;15.17;76.32;99090.63;10132341;29;20135;-76
2023/08/01 19:31:43;;;;;;;9.40;1.75;;;;;;;14.83;76.79;99097.38;10124808;29;20052;-77
2023/08/01 19:36:46;;;;;;;4.40;2.10;;;;;;;14.61;77.42;99117.16;10125618;29;20139;-77
2023/08/01 19:41:50;;;;;;;7.18;2.40;;;;;;;14.89;77.25;99108.47;10120451;29;20056;-76
2023/08/01 19:46:53;;;;;;;5.97;1.80;;;;;;;14.94;76.33;99109.59;10120512;29;20439;-76
2023/08/01 19:51:56;;;;;;;5.75;1.70;;;;;;;14.85;75.66;99110.72;10110762;29;20701;-76
2023/08/01 19:57:01;;;;;;;3.63;0.98;;;;;;;14.61;73.85;99109.06;10121909;29;20080;-77
2023/08/01 20:02:04;;;;;;;1.77;1.08;;;;;;;15.02;72.20;99117.63;10115657;29;20059;-77
2023/08/01 20:07:07;;;;;;;1.92;1.00;;;;;;;14.71;71.85;99100.72;10116611;29;20516;-76
2023/08/01 20:12:12;;;;;;;3.53;0.75;;;;;;;14.85;71.15;99109.88;10126402;29;20056;-77
2023/08/01 20:17:15;;;;;;;1.90;0.95;;;;;;;15.04;70.57;99120.16;10121534;29;20071;-77
2023/08/01 20:22:18;;;;;;;4.15;1.30;;;;;;;14.85;71.26;99109.88;10128896;29;20055;-76
2023/08/01 20:27:22;;;;;;;2.53;1.00;;;;;;;14.99;70.96;99122.59;10126236;29;20047;-78
2023/08/01 20:32:25;;;;;;;3.05;1.23;;;;;;;15.23;70.86;99125.03;10127740;29;20054;-77
2023/08/01 20:37:28;;;;;;;3.28;1.13;;;;;;;14.90;71.66;99129.94;10129780;29;20146;-76
2023/08/01 20:42:32;;;;;;;7.20;1.15;;;;;;;15.40;70.65;99127.59;10122181;29;20045;-77
2023/08/01 20:47:35;;;;;;;3.83;1.40;;;;;;;14.93;71.50;99136.84;10122846;29;20051;-77
2023/08/01 20:52:38;;;;;;;3.08;1.38;;;;;;;15.18;71.49;99130.16;10121281;29;20187;-76
2023/08/01 20:57:42;;;;;;;5.72;1.70;;;;;;;15.21;72.04;99124.38;10120050;29;20052;-77
2023/08/01 21:02:48;;;;;;;7.93;2.53;;;;;;;15.03;72.09;99132.03;10118694;29;20055;-77
2023/08/01 21:07:52;;;;;;;3.00;1.15;;;;;;;14.70;73.33;99129.59;10117025;29;20055;-77
2023/08/01 21:12:56;;;;;;;3.92;1.50;;;;;;;15.15;72.45;99127.81;10117247;29;20059;-77
2023/08/01 21:17:59;;;;;;;2.47;1.65;;;;;;;15.29;72.03;99119.91;10119732;29;20056;-77
2023/08/01 21:23:02;;;;;;;6.20;1.52;;;;;;;15.25;72.03;99114.06;10122517;29;20115;-76
2023/08/01 21:28:06;;;;;;;3.97;1.58;;;;;;;15.08;73.08;99129.56;10126327;29;20044;-77
2023/08/01 21:33:10;;;;;;;4.35;1.58;;;;;;;15.27;73.08;99125.50;10128481;29;20078;-76
2023/08/01 21:38:13;;;;;;;4.50;1.70;;;;;;;15.19;73.14;99125.59;10125595;29;20056;-77
2023/08/01 21:43:18;;;;;;;2.35;1.58;;;;;;;15.12;73.73;99132.78;10122499;29;20055;-77
2023/08/01 21:48:21;;;;;;;6.20;1.90;;;;;;;15.16;74.20;99131.38;10112310;29;20056;-77
2023/08/01 21:53:24;;;;;;;3.75;1.83;;;;;;;15.18;74.88;99129.31;10107906;29;21641;-77
2023/08/01 21:58:28;;;;;;;6.85;2.30;;;;;;;15.14;75.08;99131.56;10100849;29;20060;-77
2023/08/01 22:03:31;;;;;;;6.78;2.47;;;;;;;15.34;74.27;99115.66;10098821;29;20048;-77
2023/08/01 22:08:34;;;;;;;4.88;2.03;;;;;;;15.33;74.27;99122.09;10102230;29;20076;-77
2023/08/01 22:13:38;;;;;;;5.47;2.20;;;;;;;15.38;73.72;99119.66;10107299;29;20096;-76
2023/08/01 22:18:41;;;;;;;7.47;2.40;;;;;;;15.27;73.65;99120.94;10106156;29;20431;-76
2023/08/01 22:23:44;;;;;;;4.40;2.28;;;;;;;15.36;73.58;99123.56;10109928;29;20048;-76
2023/08/01 22:28:48;;;;;;;5.75;2.47;;;;;;;15.38;72.86;99124.25;10108527;29;20048;-75
2023/08/01 22:33:51;;;;;;;6.70;2.67;;;;;;;15.46;72.54;99114.16;10112666;29;20048;-76
2023/08/01 22:38:54;;;;;;;5.22;2.60;;;;;;;15.52;72.34;99109.88;10113558;29;20048;-76
2023/08/01 22:43:59;;;;;;;4.30;2.03;;;;;;;15.52;72.11;99117.16;10109387;29;20055;-76
2023/08/01 22:49:01;;;;;;;5.60;2.20;;;;;;;15.53;71.92;99116.97;10107887;29;20056;-77
2023/08/01 22:54:05;;;;;;;7.82;2.40;;;;;;;15.54;72.58;99109.69;10107824;29;20606;-77
2023/08/01 22:59:09;;;;;;;5.95;2.22;;;;;;;15.45;72.38;99114.34;10109311;29;20140;-76
2023/08/01 23:04:12;;;;;;;11.93;3.25;;;;;;;15.34;72.33;99106.69;10109098;29;20055;-75
2023/08/01 23:09:16;;;;;;;6.65;2.60;;;;;;;15.39;72.16;99107.84;10113246;29;21120;-76
2023/08/01 23:14:20;;;;;;;12.82;2.60;;;;;;;15.30;71.86;99108.06;10111472;29;20169;-76
2023/08/01 23:19:23;;;;;;;8.52;2.67;;;;;;;15.38;71.70;99106.13;10117689;29;20504;-76
2023/08/01 23:24:26;;;;;;;6.60;2.60;;;;;;;15.33;71.64;99113.09;10118690;29;20131;-76
2023/08/01 23:29:30;;;;;;;6.05;2.47;;;;;;;15.19;71.95;99102.09;10122827;29;20052;-76
2023/08/01 23:34:33;;;;;;;9.75;2.92;;;;;;;15.39;71.28;99098.88;10119605;29;20079;-75